Time;durP1;ratioP1;P1;durP2;ratioP2;P2;SDS_P1;SDS_P2;PMS_P1;PMS_P2;Temp;Humidity;BMP_temperature;BMP_pressure;BME280_temperature;BME280_humidity;BME280_pressure;Samples;Min_cycle;Max_cycle;Signal;HPM_P1;HPM_P2
2023/04/07 00:00:26;;;;;;;;;3.00;2.33;;;;;13.38;53.69;101137.91;2091451;28;45057;-60
2023/04/07 00:01:26;;;;;;;;;3.00;2.00;;;;;13.37;53.85;101136.16;2100129;28;44936;-61
2023/04/07 00:02:27;;;;;;;;;2.67;2.67;;;;;13.36;53.77;101141.53;2100383;28;45261;-60
2023/04/07 00:03:27;;;;;;;;;1.67;1.00;;;;;13.35;53.83;101135.34;2100019;28;44947;-59
2023/04/07 00:04:28;;;;;;;;;2.67;2.67;;;;;13.35;54.00;101145.13;2095220;28;44844;-59
2023/04/07 00:05:28;;;;;;;;;3.00;1.67;;;;;13.34;54.38;101144.25;2103066;28;44798;-62
2023/04/07 00:06:28;;;;;;;;;1.00;1.00;;;;;13.34;54.43;101143.34;2104149;27;44980;-60
2023/04/07 00:07:29;;;;;;;;;3.00;3.00;;;;;13.34;54.05;101146.00;2096067;28;45052;-60
2023/04/07 00:08:30;;;;;;;;;3.67;3.00;;;;;13.33;54.38;101139.81;2094007;28;44971;-61
2023/04/07 00:09:30;;;;;;;;;6.33;3.67;;;;;13.32;54.25;101145.19;2107718;27;45004;-61
2023/04/07 00:10:31;;;;;;;;;3.33;1.33;;;;;13.31;54.32;101141.66;2101616;28;44936;-61
2023/04/07 00:11:31;;;;;;;;;3.67;3.67;;;;;13.30;54.09;101141.69;2105077;27;45032;-60
2023/04/07 00:12:31;;;;;;;;;5.00;4.00;;;;;13.31;54.38;101143.44;2100720;27;45000;-60
2023/04/07 00:13:32;;;;;;;;;5.50;5.50;;;;;13.29;54.23;101140.81;2105320;28;44892;-60
2023/04/07 00:14:32;;;;;;;;;3.67;3.00;;;;;13.31;54.37;101149.63;2095938;28;45357;-60
2023/04/07 00:15:32;;;;;;;;;2.33;2.00;;;;;13.30;54.49;101152.34;2087122;28;44983;-60
2023/04/07 00:16:33;;;;;;;;;2.00;2.00;;;;;13.31;54.47;101140.78;2085893;28;44975;-61
2023/04/07 00:17:33;;;;;;;;;2.00;2.00;;;;;13.31;54.78;101143.44;2097222;28;44872;-60
2023/04/07 00:18:33;;;;;;;;;2.00;2.00;;;;;13.29;54.53;101150.59;2091925;28;45048;-59
2023/04/07 00:19:34;;;;;;;;;2.00;2.00;;;;;13.28;54.74;101146.19;2100958;28;45100;-59
2023/04/07 00:20:35;;;;;;;;;3.25;3.00;;;;;13.27;54.74;101147.97;2094489;28;44904;-60
2023/04/07 00:21:35;;;;;;;;;2.00;2.00;;;;;13.25;54.74;101141.81;2089508;28;45281;-60
2023/04/07 00:22:35;;;;;;;;;1.67;1.67;;;;;13.24;54.90;101140.94;2085664;28;44799;-61
2023/04/07 00:23:36;;;;;;;;;2.00;2.00;;;;;13.24;54.79;101140.06;2095914;28;45167;-60
2023/04/07 00:24:37;;;;;;;;;1.50;1.50;;;;;13.24;54.35;101142.75;2092747;28;45257;-59
2023/04/07 00:25:37;;;;;;;;;3.33;2.00;;;;;13.23;54.92;101144.53;2096496;28;45401;-60
2023/04/07 00:26:37;;;;;;;;;2.00;2.00;;;;;13.22;54.86;101141.91;2092940;28;45080;-60
2023/04/07 00:27:37;;;;;;;;;1.00;1.00;;;;;13.21;55.07;101135.69;2087208;28;44925;-59
2023/04/07 00:28:38;;;;;;;;;2.00;2.00;;;;;13.21;54.90;101137.47;2085965;28;45343;-59
2023/04/07 00:29:38;;;;;;;;;5.00;3.50;;;;;13.21;55.32;101140.13;2095851;28;44849;-60
2023/04/07 00:30:38;;;;;;;;;3.00;2.00;;;;;13.19;55.10;101140.16;2093434;28;44975;-59
2023/04/07 00:31:39;;;;;;;;;3.67;3.67;;;;;13.18;54.74;101133.09;2078199;28;44875;-59
2023/04/07 00:32:39;;;;;;;;;3.33;3.00;;;;;13.17;55.06;101138.44;2077355;28;44944;-60
2023/04/07 00:33:40;;;;;;;;;3.00;1.33;;;;;13.17;55.02;101135.75;2093846;28;44968;-60
2023/04/07 00:34:40;;;;;;;;;2.33;1.67;;;;;13.16;55.29;101126.03;2093237;28;44940;-59
2023/04/07 00:35:40;;;;;;;;;2.00;2.00;;;;;13.17;54.88;101139.31;2094736;28;45141;-61
2023/04/07 00:36:41;;;;;;;;;1.00;1.00;;;;;13.15;55.39;101133.16;2092808;28;45200;-59
2023/04/07 00:37:41;;;;;;;;;2.33;2.33;;;;;13.14;54.96;101134.06;2095383;28;45247;-60
2023/04/07 00:38:41;;;;;;;;;2.00;1.33;;;;;13.13;55.42;101131.44;2095863;28;44991;-60
2023/04/07 00:39:42;;;;;;;;;4.00;3.00;;;;;13.12;54.82;101124.38;2094836;28;44865;-61
2023/04/07 00:40:42;;;;;;;;;6.00;4.67;;;;;13.11;55.43;101125.28;2093752;28;44958;-59
2023/04/07 00:41:42;;;;;;;;;2.67;2.00;;;;;13.10;55.64;101132.41;2094848;28;45243;-61
2023/04/07 00:42:42;;;;;;;;;6.00;4.00;;;;;13.09;55.51;101129.78;2092939;28;45011;-59
2023/04/07 00:43:43;;;;;;;;;2.00;2.00;;;;;13.08;55.42;101125.34;2098551;28;45055;-60
2023/04/07 00:44:43;;;;;;;;;3.00;3.00;;;;;13.06;55.16;101122.72;2092700;28;45381;-61
2023/04/07 00:45:44;;;;;;;;;4.00;3.67;;;;;13.05;55.54;101128.09;2094369;28;44892;-61
2023/04/07 00:46:46;;;;;;;;;3.67;2.00;;;;;13.04;55.87;101119.22;2103603;28;44931;-59
2023/04/07 00:47:47;;;;;;;;;2.25;2.25;;;;;13.04;55.82;101124.53;2102500;28;45593;-59
2023/04/07 00:48:47;;;;;;;;;2.33;2.00;;;;;13.03;55.77;101117.47;2084533;28;45696;-61
2023/04/07 00:49:47;;;;;;;;;3.00;3.00;;;;;13.04;55.41;101119.22;2086091;28;45116;-60
2023/04/07 00:50:48;;;;;;;;;3.00;3.00;;;;;13.04;55.83;101116.56;2104542;28;44999;-61
2023/04/07 00:51:48;;;;;;;;;3.00;3.00;;;;;13.04;55.99;101119.22;2095273;27;44973;-59
2023/04/07 00:52:49;;;;;;;;;3.00;3.00;;;;;13.03;55.92;101117.47;2097905;28;45163;-59
2023/04/07 00:53:50;;;;;;;;;2.50;2.50;;;;;13.02;55.95;101121.03;2103648;28;44898;-61
2023/04/07 00:54:50;;;;;;;;;3.00;3.00;;;;;13.02;55.81;101117.50;2092589;28;45063;-60
2023/04/07 00:55:50;;;;;;;;;3.00;1.67;;;;;13.00;56.13;101117.56;2094830;28;44979;-59
2023/04/07 00:56:52;;;;;;;;;2.67;2.67;;;;;12.99;56.09;101120.25;2099844;28;45068;-59
2023/04/07 00:57:52;;;;;;;;;4.25;3.00;;;;;12.98;56.16;101115.84;2100794;28;44937;-61
2023/04/07 00:58:53;;;;;;;;;2.00;2.00;;;;;12.98;56.17;101118.50;2102343;28;44926;-60
2023/04/07 00:59:54;;;;;;;;;3.67;3.67;;;;;12.97;56.34;101114.97;2102809;28;44611;-59
2023/04/07 01:01:06;;;;;;;;;2.00;2.00;;;;;12.96;56.18;101119.44;2104080;28;45028;-60
2023/04/07 01:02:21;;;;;;;;;3.40;2.00;;;;;12.96;56.00;101119.44;2101979;28;44982;-59
2023/04/07 01:03:33;;;;;;;;;1.75;1.50;;;;;12.96;56.44;101113.22;2099421;28;44846;-59
2023/04/07 01:05:08;;;;;;;;;2.00;2.00;;;;;12.95;56.53;101124.75;2101404;28;45076;-60
2023/04/07 01:06:14;;;;;;;;;1.00;1.00;;;;;12.93;56.33;101118.59;2099264;28;45090;-60
2023/04/07 01:07:20;;;;;;;;;4.00;4.00;;;;;12.90;56.41;101119.56;2098222;28;44899;-58
2023/04/07 01:08:28;;;;;;;;;2.60;2.00;;;;;12.89;56.62;101116.94;2100708;27;44998;-60
2023/04/07 01:09:39;;;;;;;;;3.50;2.00;;;;;12.86;56.35;101109.03;2097861;28;44925;-59
2023/04/07 01:10:50;;;;;;;;;2.00;1.00;;;;;12.86;56.62;101117.03;2099572;28;45736;-59
2023/04/07 01:12:04;;;;;;;;;2.00;2.00;;;;;12.84;56.84;101110.88;2102466;28;44953;-60
2023/04/07 01:13:21;;;;;;;;;4.00;4.00;;;;;12.83;56.49;101117.97;2092920;28;44885;-59
2023/04/07 01:14:23;;;;;;;;;1.75;1.50;;;;;12.83;57.02;101114.41;2096270;28;45011;-61
2023/04/07 01:15:28;;;;;;;;;1.50;1.00;;;;;12.83;57.01;101115.31;2104427;28;45244;-61
2023/04/07 01:16:34;;;;;;;;;2.20;2.20;;;;;12.83;56.82;101115.31;2094803;28;45070;-60
2023/04/07 01:17:38;;;;;;;;;1.75;1.75;;;;;12.83;56.99;101117.97;2094440;28;45004;-58
2023/04/07 01:18:39;;;;;;;;;2.00;2.00;;;;;12.83;57.34;101117.06;2094247;28;45104;-60
2023/04/07 01:19:47;;;;;;;;;3.25;3.25;;;;;12.84;57.26;101119.72;2097776;28;44934;-60
2023/04/07 01:20:50;;;;;;;;;3.40;2.00;;;;;12.83;56.92;101120.66;2093719;28;44960;-58
2023/04/07 01:21:52;;;;;;;;;2.80;2.00;;;;;12.84;56.92;101114.41;2094188;28;45042;-58
2023/04/07 01:22:55;;;;;;;;;2.50;2.50;;;;;12.84;56.99;101125.06;2097835;28;45017;-60
2023/04/07 01:24:28;;;;;;;;;3.80;2.60;;;;;12.84;57.01;101124.19;2094268;28;44995;-59
2023/04/07 01:25:35;;;;;;;;;1.00;1.00;;;;;12.83;57.18;101120.66;2087690;28;45071;-58
2023/04/07 01:26:36;;;;;;;;;3.40;2.60;;;;;12.83;56.97;101119.75;2085796;28;45020;-60
2023/04/07 01:27:48;;;;;;;;;4.00;3.50;;;;;12.83;57.27;101114.41;2096964;28;45036;-60
2023/04/07 01:29:07;;;;;;;;;3.00;2.00;;;;;12.83;57.25;101119.75;2093451;28;45407;-59
2023/04/07 01:30:11;;;;;;;;;3.00;1.20;;;;;12.83;57.50;101117.97;2091204;28;45064;-59
2023/04/07 01:31:15;;;;;;;;;3.40;3.40;;;;;12.84;57.30;101114.41;2097205;28;44792;-58
2023/04/07 01:32:19;;;;;;;;;2.00;2.00;;;;;12.86;57.31;101111.69;2076419;28;44901;-59
2023/04/07 01:33:20;;;;;;;;;2.80;2.80;;;;;12.88;57.34;101112.53;2080528;28;44972;-60
2023/04/07 01:34:23;;;;;;;;;3.25;2.00;;;;;12.88;57.42;101116.06;2095473;28;45004;-60
2023/04/07 01:35:28;;;;;;;;;3.25;2.25;;;;;12.89;57.09;101111.63;2096563;28;45140;-61
2023/04/07 01:36:32;;;;;;;;;3.40;2.40;;;;;12.90;57.16;101110.69;2092165;28;47116;-59
2023/04/07 01:37:33;;;;;;;;;2.00;2.00;;;;;12.90;57.16;101111.56;2088313;28;44993;-60
2023/04/07 01:38:35;;;;;;;;;3.00;3.00;;;;;12.93;57.29;101121.28;2102177;27;44909;-59
2023/04/07 01:39:37;;;;;;;;;3.50;2.00;;;;;12.94;57.15;101117.69;2095241;28;45072;-61
2023/04/07 01:40:39;;;;;;;;;4.00;2.00;;;;;12.95;57.14;101114.09;2087856;28;44874;-59
2023/04/07 01:41:41;;;;;;;;;3.00;2.00;;;;;12.96;57.15;101113.22;2101037;28;44848;-60
2023/04/07 01:42:43;;;;;;;;;3.75;3.00;;;;;12.98;57.17;101123.84;2093592;28;45103;-60
2023/04/07 01:43:45;;;;;;;;;5.00;3.00;;;;;12.98;57.18;101121.19;2095240;28;44833;-60
2023/04/07 01:44:47;;;;;;;;;1.75;1.75;;;;;12.96;57.26;101122.09;2096405;28;45019;-59
2023/04/07 01:45:49;;;;;;;;;4.00;3.00;;;;;12.99;57.35;101121.13;2090959;28;45134;-59
2023/04/07 01:46:49;;;;;;;;;3.00;2.00;;;;;12.99;57.13;101113.16;2091959;28;44991;-60
2023/04/07 01:47:51;;;;;;;;;3.00;2.00;;;;;13.01;57.50;101123.75;2093125;28;45020;-61
2023/04/07 01:48:52;;;;;;;;;3.50;2.50;;;;;13.03;57.02;101117.47;2098969;28;44957;-60
2023/04/07 01:49:54;;;;;;;;;4.00;3.00;;;;;13.05;57.23;101120.97;2095834;28;45190;-60
2023/04/07 01:50:55;;;;;;;;;3.67;3.67;;;;;13.06;57.10;101112.06;2080541;28;44813;-60
2023/04/07 01:51:56;;;;;;;;;4.50;3.50;;;;;13.07;57.10;101121.78;2080539;28;44928;-60
2023/04/07 01:52:57;;;;;;;;;3.25;3.00;;;;;13.08;57.28;101120.88;2100206;27;44867;-60
2023/04/07 01:54:01;;;;;;;;;4.50;3.00;;;;;13.10;57.28;101123.53;2094890;28;45026;-60
2023/04/07 01:55:03;;;;;;;;;3.50;3.25;;;;;13.11;57.15;101120.81;2099055;28;44991;-60
2023/04/07 01:56:04;;;;;;;;;3.00;3.00;;;;;13.11;57.19;101126.16;2102344;27;45019;-59
2023/04/07 01:57:04;;;;;;;;;2.50;2.50;;;;;13.12;57.21;101125.25;2103337;28;44944;-61
2023/04/07 01:58:06;;;;;;;;;3.67;3.67;;;;;13.11;57.06;101126.16;2102677;27;44916;-59
2023/04/07 01:59:06;;;;;;;;;2.25;2.25;;;;;13.11;57.22;101122.63;2108085;27;44911;-60
2023/04/07 02:00:07;;;;;;;;;3.33;3.00;;;;;13.11;57.25;101119.94;2104026;27;45420;-60
2023/04/07 02:01:07;;;;;;;;;4.00;3.67;;;;;13.09;57.05;101117.31;2086864;28;44803;-59
2023/04/07 02:02:08;;;;;;;;;3.00;1.00;;;;;13.08;57.35;101117.34;2085253;28;45094;-59
2023/04/07 02:03:19;;;;;;;;;4.33;3.33;;;;;13.05;57.36;101112.97;2098701;27;44862;-60
2023/04/07 02:04:42;;;;;;;;;3.75;2.50;;;;;13.06;57.44;101119.16;2090371;28;45055;-60
2023/04/07 02:05:42;;;;;;;;;5.00;4.00;;;;;13.05;57.69;101128.97;2095205;27;44995;-60
2023/04/07 02:07:07;;;;;;;;;2.00;2.00;;;;;13.04;57.61;101121.00;2098694;28;44878;-59
2023/04/07 02:08:10;;;;;;;;;3.75;3.25;;;;;13.02;57.46;101121.03;2097766;28;45036;-60
2023/04/07 02:09:14;;;;;;;;;3.00;2.50;;;;;13.01;57.60;101116.63;2103979;27;44892;-60
2023/04/07 02:10:16;;;;;;;;;5.50;3.75;;;;;13.01;57.23;101126.41;2092461;28;45057;-59
2023/04/07 02:11:20;;;;;;;;;4.75;3.50;;;;;13.01;57.43;101119.31;2095526;28;44949;-59
2023/04/07 02:12:22;;;;;;;;;5.75;4.00;;;;;13.01;57.62;101129.09;2100288;27;45000;-59
2023/04/07 02:13:23;;;;;;;;;3.00;2.50;;;;;13.01;57.66;101127.28;2104260;27;44968;-59
2023/04/07 02:14:24;;;;;;;;;5.50;4.50;;;;;13.01;57.78;101124.63;2098629;28;44855;-60
2023/04/07 02:15:26;;;;;;;;;3.33;3.33;;;;;13.01;57.67;101123.75;2100035;27;44972;-59
2023/04/07 02:16:30;;;;;;;;;2.50;2.00;;;;;12.99;57.76;101123.78;2102075;28;45079;-59
2023/04/07 02:17:33;;;;;;;;;3.00;3.00;;;;;13.00;57.87;101122.00;2103641;27;44933;-59
2023/04/07 02:18:35;;;;;;;;;3.25;2.75;;;;;12.97;57.63;101122.97;2101599;27;44874;-59
2023/04/07 02:19:36;;;;;;;;;3.25;1.75;;;;;12.98;57.63;101126.50;2097830;28;44893;-59
2023/04/07 02:20:37;;;;;;;;;4.00;4.00;;;;;12.98;57.89;101123.84;2105397;27;44834;-60
2023/04/07 02:21:39;;;;;;;;;2.50;2.00;;;;;13.00;57.85;101133.53;2098439;27;44943;-59
2023/04/07 02:22:41;;;;;;;;;4.00;3.00;;;;;13.00;57.80;101130.00;2092581;28;44885;-61
2023/04/07 02:23:41;;;;;;;;;5.00;4.00;;;;;13.00;58.08;101130.88;2094776;28;44928;-60
2023/04/07 02:24:42;;;;;;;;;4.00;3.00;;;;;13.02;57.83;101126.38;2103706;28;44873;-60
2023/04/07 02:25:42;;;;;;;;;4.67;3.33;;;;;13.03;57.62;101135.25;2101313;27;45160;-59
2023/04/07 02:26:43;;;;;;;;;4.00;4.00;;;;;13.04;57.83;101131.66;2103607;27;44899;-60
2023/04/07 02:27:43;;;;;;;;;4.00;3.00;;;;;13.05;57.86;101134.28;2100712;28;45011;-59
2023/04/07 02:28:43;;;;;;;;;4.00;4.00;;;;;13.07;58.02;101134.25;2100506;27;44831;-59
2023/04/07 02:29:44;;;;;;;;;6.00;4.00;;;;;13.09;57.88;101138.66;2096459;27;44929;-60
2023/04/07 02:30:44;;;;;;;;;5.00;3.00;;;;;13.10;57.95;101137.72;2104100;28;44964;-61
2023/04/07 02:31:45;;;;;;;;;3.67;3.67;;;;;13.10;57.72;101132.41;2101004;27;45089;-60
2023/04/07 02:32:45;;;;;;;;;4.00;3.00;;;;;13.13;58.09;101139.44;2100413;28;44933;-59
2023/04/07 02:33:46;;;;;;;;;2.67;2.00;;;;;13.12;57.89;101138.56;2093989;28;45745;-59
2023/04/07 02:34:46;;;;;;;;;4.00;4.00;;;;;13.12;57.92;101138.56;2076997;28;44959;-60
2023/04/07 02:35:46;;;;;;;;;5.00;4.00;;;;;13.13;57.83;101137.63;2074576;28;45134;-59
2023/04/07 02:36:47;;;;;;;;;4.33;3.00;;;;;13.13;57.84;101144.75;2077086;28;45420;-58
2023/04/07 02:37:47;;;;;;;;;7.00;4.00;;;;;13.14;57.80;101135.84;2086244;28;45061;-59
2023/04/07 02:38:48;;;;;;;;;2.00;2.00;;;;;13.14;57.83;101128.72;2083300;28;45272;-59
2023/04/07 02:39:48;;;;;;;;;6.33;5.00;;;;;13.13;57.81;101139.44;2079892;28;45064;-59
2023/04/07 02:40:48;;;;;;;;;5.67;4.67;;;;;13.11;57.93;101131.47;2084955;28;45057;-59
2023/04/07 02:41:49;;;;;;;;;3.67;3.67;;;;;13.09;57.75;101127.13;2085997;28;45202;-61
2023/04/07 02:42:49;;;;;;;;;6.00;5.00;;;;;13.07;58.05;101132.44;2089120;28;45424;-59
2023/04/07 02:43:50;;;;;;;;;2.33;2.00;;;;;13.06;58.01;101133.38;2087137;28;45013;-59
2023/04/07 02:44:50;;;;;;;;;4.00;3.33;;;;;13.03;58.01;101130.78;2085378;28;45354;-59
2023/04/07 02:45:50;;;;;;;;;3.67;3.67;;;;;13.02;57.94;101126.38;2084473;28;45031;-58
2023/04/07 02:46:51;;;;;;;;;4.33;4.33;;;;;13.00;58.01;101132.66;2083313;28;44980;-60
2023/04/07 02:47:51;;;;;;;;;8.33;6.00;;;;;13.00;58.31;101125.53;2081879;28;45016;-59
2023/04/07 02:48:51;;;;;;;;;4.00;3.00;;;;;12.98;58.25;101123.84;2082657;28;45137;-61
2023/04/07 02:49:52;;;;;;;;;4.33;3.67;;;;;12.96;58.63;101116.75;2084189;28;45244;-59
2023/04/07 02:50:52;;;;;;;;;4.67;4.67;;;;;12.95;58.26;101120.31;2084086;28;44988;-60
2023/04/07 02:51:52;;;;;;;;;4.33;4.00;;;;;12.95;58.41;101120.31;2085615;28;45028;-60
2023/04/07 02:52:53;;;;;;;;;4.33;4.33;;;;;12.94;58.34;101121.22;2082373;28;44882;-59
2023/04/07 02:53:53;;;;;;;;;3.67;3.33;;;;;12.93;58.38;101118.59;2084094;28;44981;-59
2023/04/07 02:54:54;;;;;;;;;4.67;3.67;;;;;12.93;58.54;101123.94;2084486;28;44880;-60
2023/04/07 02:55:54;;;;;;;;;4.00;4.00;;;;;12.92;58.53;101116.84;2084442;28;44973;-60
2023/04/07 02:56:56;;;;;;;;;7.00;6.00;;;;;12.92;57.99;101117.72;2075298;28;45029;-59
2023/04/07 02:57:56;;;;;;;;;5.00;4.25;;;;;12.91;58.60;101115.09;2075936;28;44881;-59
2023/04/07 02:58:56;;;;;;;;;4.67;3.33;;;;;12.91;58.56;101115.09;2074065;28;44867;-59
2023/04/07 02:59:57;;;;;;;;;5.67;5.00;;;;;12.91;58.72;101115.09;2078649;28;44900;-59
2023/04/07 03:00:57;;;;;;;;;4.00;3.00;;;;;12.90;58.69;101106.25;2089939;28;45467;-59
2023/04/07 03:01:57;;;;;;;;;5.00;3.67;;;;;12.89;58.80;101112.50;2089786;28;44873;-59
2023/04/07 03:02:58;;;;;;;;;6.33;6.00;;;;;12.89;58.95;101109.81;2080942;28;44942;-59
2023/04/07 03:03:58;;;;;;;;;4.33;4.33;;;;;12.87;58.90;101111.66;2079485;28;44904;-58
2023/04/07 03:04:58;;;;;;;;;4.33;3.00;;;;;12.88;58.77;101115.19;2086680;28;44836;-59
2023/04/07 03:05:59;;;;;;;;;5.33;5.00;;;;;12.88;58.89;101117.84;2076862;28;44795;-58
2023/04/07 03:06:59;;;;;;;;;4.00;4.00;;;;;12.87;58.88;101114.31;2102102;28;45806;-60
2023/04/07 03:07:59;;;;;;;;;5.00;5.00;;;;;12.89;58.98;101120.47;2109181;27;45129;-59
2023/04/07 03:09:00;;;;;;;;;4.33;4.33;;;;;12.89;58.82;101120.47;2101269;27;45024;-60
2023/04/07 03:10:00;;;;;;;;;3.33;3.33;;;;;12.90;58.98;101118.69;2100866;27;45044;-59
2023/04/07 03:11:01;;;;;;;;;2.67;2.00;;;;;12.89;58.88;101120.47;2095168;28;44955;-60
2023/04/07 03:12:02;;;;;;;;;3.00;2.67;;;;;12.89;58.83;101123.16;2093583;28;45390;-58
2023/04/07 03:13:02;;;;;;;;;4.50;3.50;;;;;12.89;58.97;101116.94;2092858;28;44838;-59
2023/04/07 03:14:02;;;;;;;;;4.00;3.00;;;;;12.89;58.70;101123.16;2092885;28;44845;-59
2023/04/07 03:15:03;;;;;;;;;4.33;4.00;;;;;12.89;58.97;101124.94;2095471;28;44945;-60
2023/04/07 03:16:03;;;;;;;;;4.67;4.67;;;;;12.88;58.91;101123.19;2095026;28;44993;-58
2023/04/07 03:17:04;;;;;;;;;3.33;2.00;;;;;12.88;59.17;101120.53;2105584;28;45029;-60
2023/04/07 03:18:04;;;;;;;;;3.00;3.00;;;;;12.86;59.00;101122.34;2094166;28;44960;-60
2023/04/07 03:19:05;;;;;;;;;3.00;3.00;;;;;12.86;59.11;101122.34;2090630;28;45053;-59
2023/04/07 03:20:06;;;;;;;;;4.33;4.33;;;;;12.85;58.93;101120.59;2100428;28;44907;-59
2023/04/07 03:21:07;;;;;;;;;4.00;4.00;;;;;12.83;59.02;101120.66;2096248;28;44928;-61
2023/04/07 03:22:07;;;;;;;;;5.33;4.33;;;;;12.84;59.11;101121.53;2093477;28;45048;-60
2023/04/07 03:23:07;;;;;;;;;5.33;5.33;;;;;12.83;59.14;101117.06;2103576;28;45310;-59
2023/04/07 03:24:08;;;;;;;;;6.00;5.00;;;;;12.81;58.80;101116.25;2104107;28;45101;-60
2023/04/07 03:25:08;;;;;;;;;2.00;2.00;;;;;12.80;59.03;101117.16;2105162;28;45017;-59
2023/04/07 03:26:09;;;;;;;;;3.33;3.33;;;;;12.78;59.29;101116.31;2102995;28;45116;-61
2023/04/07 03:27:09;;;;;;;;;4.33;3.67;;;;;12.77;59.18;101111.91;2104017;28;44969;-61
2023/04/07 03:28:09;;;;;;;;;3.33;3.33;;;;;12.76;59.27;101121.69;2099979;28;44841;-60
2023/04/07 03:29:10;;;;;;;;;3.33;3.33;;;;;12.75;59.11;101119.94;2096453;28;44833;-59
2023/04/07 03:30:10;;;;;;;;;4.00;4.00;;;;;12.73;59.29;101119.13;2094375;28;44853;-60
2023/04/07 03:31:11;;;;;;;;;4.00;4.00;;;;;12.72;59.43;101113.81;2098580;28;44882;-62
2023/04/07 03:32:11;;;;;;;;;4.00;4.00;;;;;12.70;59.49;101113.84;2102751;28;44946;-61
2023/04/07 03:33:11;;;;;;;;;5.00;5.00;;;;;12.70;59.24;101124.50;2104501;28;44765;-61
2023/04/07 03:34:12;;;;;;;;;4.67;4.33;;;;;12.70;59.48;101123.63;2104436;28;45232;-60
2023/04/07 03:35:12;;;;;;;;;5.67;3.00;;;;;12.70;59.47;101127.16;2104223;27;45267;-61
2023/04/07 03:36:13;;;;;;;;;4.00;4.00;;;;;12.71;59.47;101120.06;2102489;28;45117;-60
2023/04/07 03:37:13;;;;;;;;;5.00;5.00;;;;;12.71;59.56;101125.41;2105857;28;44991;-60
2023/04/07 03:38:13;;;;;;;;;4.00;4.00;;;;;12.71;59.25;101130.72;2094908;28;45019;-60
2023/04/07 03:39:14;;;;;;;;;4.33;3.00;;;;;12.73;59.58;101131.56;2089333;28;45050;-61
2023/04/07 03:40:14;;;;;;;;;9.00;5.00;;;;;12.72;59.44;101122.69;2090564;28;44927;-61
2023/04/07 03:41:15;;;;;;;;;3.67;3.67;;;;;12.71;59.38;101120.94;2089669;28;44862;-61
2023/04/07 03:42:15;;;;;;;;;4.33;4.00;;;;;12.72;59.51;101129.81;2103077;28;45042;-60
2023/04/07 03:43:16;;;;;;;;;4.00;4.00;;;;;12.72;59.42;101124.47;2104905;28;45069;-60
2023/04/07 03:44:16;;;;;;;;;7.33;5.00;;;;;12.73;59.33;101128.88;2096029;28;44974;-59
2023/04/07 03:45:17;;;;;;;;;6.33;5.00;;;;;12.72;59.35;101128.03;2096036;28;44964;-59
2023/04/07 03:46:19;;;;;;;;;5.00;5.00;;;;;12.71;59.45;101126.28;2104576;28;44888;-60
2023/04/07 03:47:20;;;;;;;;;5.50;4.00;;;;;12.71;59.38;101114.75;2104555;28;44986;-60
2023/04/07 03:48:20;;;;;;;;;4.67;4.67;;;;;12.68;59.37;101126.31;2100729;27;44905;-61
2023/04/07 03:49:21;;;;;;;;;4.67;3.67;;;;;12.66;59.12;101123.69;2104851;27;44834;-60
2023/04/07 03:50:21;;;;;;;;;5.00;4.00;;;;;12.65;59.60;101129.06;2101098;28;45127;-60
2023/04/07 03:51:21;;;;;;;;;6.00;6.00;;;;;12.63;59.70;101121.13;2097461;28;44740;-60
2023/04/07 03:52:22;;;;;;;;;5.67;3.00;;;;;12.61;59.86;101120.28;2093488;28;44924;-60
2023/04/07 03:53:22;;;;;;;;;3.67;3.00;;;;;12.58;59.80;101128.34;2104365;27;45301;-60
2023/04/07 03:54:22;;;;;;;;;3.67;3.67;;;;;12.57;59.66;101121.25;2105399;27;44946;-60
2023/04/07 03:55:23;;;;;;;;;3.33;3.33;;;;;12.56;59.71;101122.16;2096971;27;44878;-59
2023/04/07 03:56:23;;;;;;;;;7.00;4.33;;;;;12.55;59.81;101125.72;2105250;27;44869;-60
2023/04/07 03:57:24;;;;;;;;;3.33;3.00;;;;;12.55;59.76;101131.06;2106389;27;44826;-61
2023/04/07 03:58:24;;;;;;;;;6.00;4.00;;;;;12.55;59.89;101124.84;2101896;28;45088;-60
2023/04/07 03:59:24;;;;;;;;;7.00;6.00;;;;;12.54;59.82;101123.09;2097945;28;44805;-59
2023/04/07 04:00:25;;;;;;;;;4.00;4.00;;;;;12.53;59.99;101122.22;2094624;28;45092;-58
2023/04/07 04:01:26;;;;;;;;;4.00;4.00;;;;;12.53;59.97;101124.91;2103696;28;44935;-60
2023/04/07 04:02:26;;;;;;;;;5.00;5.00;;;;;12.52;59.86;101120.47;2102958;27;45036;-60
2023/04/07 04:03:26;;;;;;;;;4.00;4.00;;;;;12.50;59.57;101118.78;2097775;28;44935;-61
2023/04/07 04:04:27;;;;;;;;;3.00;2.33;;;;;12.50;59.83;101124.97;2095501;28;45198;-60
2023/04/07 04:05:27;;;;;;;;;5.00;5.00;;;;;12.48;59.99;101118.81;2091370;28;45048;-60
2023/04/07 04:06:28;;;;;;;;;6.33;6.33;;;;;12.48;59.80;101117.94;2102567;28;45002;-60
2023/04/07 04:07:28;;;;;;;;;5.00;3.67;;;;;12.47;59.92;101119.72;2108120;27;45083;-60
2023/04/07 04:08:28;;;;;;;;;6.67;5.67;;;;;12.44;59.82;101117.13;2102120;28;45028;-60
2023/04/07 04:09:29;;;;;;;;;3.00;3.00;;;;;12.45;59.96;101125.97;2100005;28;45007;-60
2023/04/07 04:10:29;;;;;;;;;3.67;3.67;;;;;12.43;60.09;101120.69;2102383;28;44885;-61
2023/04/07 04:11:30;;;;;;;;;4.67;4.67;;;;;12.42;60.10;101124.25;2104586;28;44934;-60
2023/04/07 04:12:30;;;;;;;;;4.00;3.00;;;;;12.40;60.08;101130.53;2103007;28;45008;-59
2023/04/07 04:13:31;;;;;;;;;3.67;3.00;;;;;12.38;60.03;101131.44;2104349;28;45005;-61
2023/04/07 04:14:31;;;;;;;;;6.00;3.33;;;;;12.40;60.31;101117.22;2093761;28;44999;-61
2023/04/07 04:15:31;;;;;;;;;3.33;3.33;;;;;12.41;60.30;101127.84;2102751;28;45524;-59
2023/04/07 04:16:34;;;;;;;;;3.00;2.00;;;;;12.41;60.28;101126.97;2103751;28;45087;-60
2023/04/07 04:17:34;;;;;;;;;7.00;5.50;;;;;12.41;60.29;101127.84;2105433;28;44839;-60
2023/04/07 04:18:35;;;;;;;;;4.33;4.33;;;;;12.40;60.21;101130.53;2103856;28;45111;-60
2023/04/07 04:19:35;;;;;;;;;5.33;5.33;;;;;12.37;60.25;101134.16;2098988;28;45106;-59
2023/04/07 04:20:36;;;;;;;;;3.67;3.67;;;;;12.36;60.29;101135.06;2102466;28;44848;-59
2023/04/07 04:21:36;;;;;;;;;6.50;4.00;;;;;12.34;60.43;101135.09;2089053;28;45096;-61
2023/04/07 04:22:36;;;;;;;;;5.67;5.00;;;;;12.32;60.28;101136.94;2092790;28;45063;-61
2023/04/07 04:23:37;;;;;;;;;5.33;5.33;;;;;12.31;60.44;101134.28;2098097;28;44995;-59
2023/04/07 04:24:37;;;;;;;;;5.00;5.00;;;;;12.31;60.20;101143.13;2099544;28;44990;-61
2023/04/07 04:25:40;;;;;;;;;6.00;4.67;;;;;12.30;60.48;101143.16;2103997;28;45113;-60
2023/04/07 04:26:41;;;;;;;;;7.00;6.50;;;;;12.29;60.48;101147.63;2103123;27;45082;-59
2023/04/07 04:27:41;;;;;;;;;4.67;4.67;;;;;12.28;60.29;101145.00;2094737;28;45268;-61
2023/04/07 04:28:41;;;;;;;;;4.67;4.00;;;;;12.27;60.32;101144.13;2092804;28;45265;-60
2023/04/07 04:29:41;;;;;;;;;5.00;5.00;;;;;12.26;60.24;101141.50;2096934;28;44892;-60
2023/04/07 04:30:42;;;;;;;;;7.67;5.00;;;;;12.23;60.43;101150.41;2093166;28;44805;-60
2023/04/07 04:31:42;;;;;;;;;5.33;4.33;;;;;12.22;60.55;101146.00;2098230;27;44923;-61
2023/04/07 04:32:43;;;;;;;;;4.00;4.00;;;;;12.23;60.59;101149.53;2103607;28;44985;-61
2023/04/07 04:33:43;;;;;;;;;6.00;5.00;;;;;12.21;60.56;101149.59;2104353;27;44975;-61
2023/04/07 04:34:44;;;;;;;;;6.00;6.00;;;;;12.21;60.48;101154.03;2104669;28;44830;-60
2023/04/07 04:35:45;;;;;;;;;4.00;4.00;;;;;12.18;60.70;101146.09;2102166;28;45153;-60
2023/04/07 04:36:47;;;;;;;;;3.75;3.00;;;;;12.17;60.51;101145.22;2105522;28;44889;-60
2023/04/07 04:37:48;;;;;;;;;3.00;3.00;;;;;12.17;60.45;101150.53;2094722;28;45236;-60
2023/04/07 04:38:48;;;;;;;;;6.33;5.67;;;;;12.17;60.71;101157.66;2095605;28;45381;-60
2023/04/07 04:39:48;;;;;;;;;4.33;4.33;;;;;12.17;60.53;101154.97;2102871;28;45056;-60
2023/04/07 04:40:49;;;;;;;;;6.00;6.00;;;;;12.16;60.59;101154.09;2102853;28;44875;-62
2023/04/07 04:41:49;;;;;;;;;4.00;3.67;;;;;12.16;60.87;101158.56;2085047;28;44996;-61
2023/04/07 04:42:50;;;;;;;;;6.00;5.00;;;;;12.15;60.76;101154.16;2081012;28;45072;-62
2023/04/07 04:43:50;;;;;;;;;4.00;4.00;;;;;12.13;60.60;101153.31;2098289;28;45205;-60
2023/04/07 04:44:50;;;;;;;;;4.33;4.33;;;;;12.12;60.78;101151.56;2101151;28;44891;-61
2023/04/07 04:45:51;;;;;;;;;6.00;6.00;;;;;12.11;60.79;101148.03;2101558;28;45023;-60
2023/04/07 04:46:51;;;;;;;;;6.33;4.33;;;;;12.13;60.75;101150.66;2094979;28;44982;-61